createdAt,value
2019-06-07T00:00:40.000Z,5.67
2019-06-07T00:03:42.568Z,8.67
2019-06-07T00:06:47.008Z,9.03
2019-06-07T00:09:51.554Z,12.67
2019-06-07T00:12:56.669Z,7.83
2019-06-07T00:16:01.233Z,5.27
2019-06-07T00:19:05.801Z,7.47
2019-06-07T00:22:20.921Z,8.37
2019-06-07T00:25:22.837Z,9.03
2019-06-07T00:28:23.488Z,10.40
2019-06-07T00:31:28.073Z,7.17
2019-06-07T00:34:33.588Z,6.70
2019-06-07T00:37:38.309Z,8.57
2019-06-07T00:40:42.891Z,10.43
2019-06-07T00:43:47.483Z,12.33
2019-06-07T00:46:52.059Z,13.23
2019-06-07T00:49:56.785Z,10.80
2019-06-07T00:53:23.356Z,11.77
2019-06-07T00:56:07.558Z,11.23
2019-06-07T00:59:16.100Z,8.50
2019-06-07T01:02:22.243Z,7.23
2019-06-07T01:05:31.063Z,5.90
2019-06-07T01:08:31.434Z,5.50
2019-06-07T01:11:36.022Z,5.43
2019-06-07T01:14:40.682Z,4.97
2019-06-07T01:18:25.858Z,5.17
2019-06-07T01:20:51.461Z,5.43
2019-06-07T01:24:10.659Z,4.90
2019-06-07T01:27:02.294Z,5.10
2019-06-07T01:30:08.978Z,6.23
2019-06-07T01:33:13.531Z,7.00
2019-06-07T01:36:19.568Z,6.37
2019-06-07T01:39:29.296Z,5.60
2019-06-07T01:42:31.023Z,4.97
2019-06-07T01:45:35.841Z,5.13
2019-06-07T01:48:49.323Z,5.20
2019-06-07T01:51:46.628Z,5.33
2019-06-07T01:54:57.976Z,5.60
2019-06-07T01:57:57.413Z,5.73
2019-06-07T02:01:02.025Z,5.57
2019-06-07T02:04:06.666Z,5.97
2019-06-07T02:07:11.223Z,6.17
2019-06-07T02:10:25.771Z,5.47
2019-06-07T02:13:30.613Z,5.50
2019-06-07T02:16:34.363Z,5.97
2019-06-07T02:19:38.919Z,5.93
2019-06-07T02:22:43.515Z,5.70
2019-06-07T02:25:50.426Z,5.70
2019-06-07T02:28:54.351Z,5.90
2019-06-07T02:31:58.842Z,6.23
2019-06-07T02:35:03.447Z,5.57
2019-06-07T02:38:08.092Z,5.43
2019-06-07T02:41:12.733Z,5.87
2019-06-07T02:44:17.339Z,5.87
2019-06-07T02:47:22.729Z,6.40
2019-06-07T02:50:29.158Z,6.30
2019-06-07T02:53:38.357Z,5.83
2019-06-07T02:56:56.682Z,6.23
2019-06-07T03:00:06.493Z,6.20
2019-06-07T03:02:52.367Z,6.37
2019-06-07T03:05:57.263Z,5.87
2019-06-07T03:09:02.270Z,5.43
2019-06-07T03:12:08.119Z,5.27
2019-06-07T03:15:32.248Z,5.53
2019-06-07T03:18:41.581Z,5.33
2019-06-07T03:21:45.748Z,5.37
2019-06-07T03:24:51.265Z,5.50
2019-06-07T03:27:55.916Z,5.90
2019-06-07T03:31:02.663Z,5.07
2019-06-07T03:34:06.722Z,5.30
2019-06-07T03:37:11.343Z,6.20
2019-06-07T03:40:16.042Z,6.97
2019-06-07T03:43:21.514Z,11.30
2019-06-07T03:46:27.324Z,9.60
2019-06-07T03:49:38.738Z,12.23
2019-06-07T03:52:41.325Z,10.53
2019-06-07T03:55:44.859Z,9.07
2019-06-07T03:58:50.571Z,9.90
2019-06-07T04:01:56.081Z,9.27
2019-06-07T04:05:00.785Z,10.67
2019-06-07T04:08:05.979Z,11.03
2019-06-07T04:11:10.567Z,10.73
2019-06-07T04:14:15.614Z,11.03
2019-06-07T04:17:20.155Z,11.47
2019-06-07T04:20:24.687Z,12.00
2019-06-07T04:23:31.748Z,11.07
2019-06-07T04:26:37.447Z,11.20
2019-06-07T04:30:05.372Z,13.03
2019-06-07T04:32:49.792Z,14.83
2019-06-07T04:35:56.743Z,13.80
2019-06-07T04:39:02.531Z,14.10
2019-06-07T04:42:07.400Z,14.43
2019-06-07T04:45:33.027Z,11.23
2019-06-07T04:48:21.366Z,13.73
2019-06-07T04:51:27.381Z,11.13
2019-06-07T04:54:34.726Z,11.70
2019-06-07T04:57:42.711Z,12.30
2019-06-07T05:00:52.810Z,9.93
2019-06-07T05:03:52.992Z,12.07
2019-06-07T05:06:58.061Z,11.80
2019-06-07T05:10:04.325Z,9.13
2019-06-07T05:13:08.887Z,8.30
2019-06-07T05:16:13.908Z,9.70
2019-06-07T05:19:18.583Z,13.90
2019-06-07T05:22:23.564Z,11.53
2019-06-07T05:25:28.051Z,9.90
2019-06-07T05:28:35.147Z,9.40
2019-06-07T05:31:44.956Z,12.33
2019-06-07T05:34:47.617Z,10.50
2019-06-07T05:37:53.367Z,9.80
2019-06-07T05:40:58.400Z,9.47
2019-06-07T05:44:12.531Z,8.83
2019-06-07T05:47:10.089Z,9.83
2019-06-07T05:50:38.464Z,10.80
2019-06-07T05:53:22.024Z,12.67
2019-06-07T05:56:26.991Z,11.43
2019-06-07T05:59:33.420Z,10.00
2019-06-07T06:02:58.591Z,9.33
2019-06-07T06:05:53.970Z,12.07
2019-06-07T06:08:52.342Z,10.40
2019-06-07T06:12:02.330Z,13.60
2019-06-07T06:15:03.523Z,12.37
2019-06-07T06:18:08.290Z,8.90
2019-06-07T06:21:19.710Z,9.07
2019-06-07T06:24:21.765Z,9.40
2019-06-07T06:28:03.472Z,10.57
2019-06-07T06:30:33.169Z,15.27
2019-06-07T06:33:37.744Z,11.60
2019-06-07T06:36:44.601Z,9.93
2019-06-07T06:39:50.177Z,12.63
2019-06-07T06:42:55.368Z,15.30
2019-06-07T06:46:00.410Z,13.37
2019-06-07T06:49:05.277Z,13.73
2019-06-07T06:52:10.222Z,17.47
2019-06-07T06:55:16.950Z,18.63
2019-06-07T06:58:22.723Z,18.17
2019-06-07T07:01:27.231Z,19.30
2019-06-07T07:04:31.978Z,16.60
2019-06-07T07:07:36.921Z,15.60
2019-06-07T07:10:45.747Z,14.23
2019-06-07T07:13:55.841Z,13.27
2019-06-07T07:16:57.928Z,17.77
2019-06-07T07:20:03.043Z,14.13
2019-06-07T07:23:07.736Z,16.33
2019-06-07T07:26:12.208Z,17.57
2019-06-07T07:29:17.237Z,16.60
2019-06-07T07:32:21.771Z,14.30
2019-06-07T07:35:26.397Z,12.93
2019-06-07T07:38:30.910Z,16.43
2019-06-07T07:41:35.479Z,14.70
2019-06-07T07:44:40.112Z,11.03
2019-06-07T07:48:03.187Z,11.43
2019-06-07T07:50:59.266Z,13.00
2019-06-07T07:54:10.247Z,13.47
2019-06-07T07:57:05.923Z,13.13
2019-06-07T08:00:48.838Z,10.63
2019-06-07T08:03:17.308Z,9.83
2019-06-07T08:06:22.267Z,10.77
2019-06-07T08:09:27.418Z,15.53
2019-06-07T08:12:54.566Z,16.63
2019-06-07T08:15:39.276Z,17.27
2019-06-07T08:18:48.729Z,16.50
2019-06-07T08:21:53.053Z,12.67
2019-06-07T08:25:02.347Z,11.73
2019-06-07T08:28:04.348Z,13.90
2019-06-07T08:31:09.524Z,15.83
2019-06-07T08:34:14.519Z,15.53
2019-06-07T08:37:19.403Z,14.57
2019-06-07T08:40:24.364Z,15.50
2019-06-07T08:43:30.716Z,17.30
2019-06-07T08:46:35.386Z,14.97
2019-06-07T08:49:40.716Z,15.13
2019-06-07T08:52:45.240Z,16.10
2019-06-07T08:55:52.478Z,14.10
2019-06-07T08:59:00.541Z,16.00
2019-06-07T09:02:14.575Z,15.17
2019-06-07T09:05:12.454Z,15.73
2019-06-07T09:08:29.137Z,15.77
2019-06-07T09:11:22.154Z,15.90
2019-06-07T09:14:26.728Z,13.33
2019-06-07T09:17:31.665Z,15.20
2019-06-07T09:20:45.807Z,13.80
2019-06-07T09:23:50.423Z,14.80
2019-06-07T09:26:55.856Z,12.80
2019-06-07T09:30:07.612Z,13.03
2019-06-07T09:33:09.070Z,14.33
2019-06-07T09:36:14.141Z,12.67
2019-06-07T09:39:19.058Z,11.80
2019-06-07T09:42:24.193Z,14.43
2019-06-07T09:45:29.791Z,13.57
2019-06-07T09:49:09.837Z,13.43
2019-06-07T09:51:41.322Z,14.00
2019-06-07T09:57:52.989Z,12.37
2019-06-07T10:01:02.066Z,11.60
2019-06-07T10:04:10.701Z,11.63
2019-06-07T10:07:30.171Z,9.27
2019-06-07T10:13:24.435Z,11.10
2019-06-07T10:16:32.939Z,11.97
2019-06-07T10:19:35.936Z,10.93
2019-06-07T10:22:40.544Z,10.83
2019-06-07T10:25:45.446Z,12.57
2019-06-07T10:28:53.241Z,12.20
2019-06-07T10:31:56.212Z,11.10
2019-06-07T10:35:03.313Z,11.57
2019-06-07T10:38:08.597Z,12.80
2019-06-07T10:41:13.328Z,10.87
2019-06-07T10:44:18.296Z,13.60
2019-06-07T10:47:22.898Z,12.27
2019-06-07T10:50:46.475Z,13.03
2019-06-07T10:53:51.055Z,11.03
2019-06-07T10:56:55.633Z,9.40
2019-06-07T11:00:00.241Z,8.73
2019-06-07T11:03:05.924Z,8.13
2019-06-07T11:06:11.998Z,7.67
2019-06-07T11:09:16.825Z,7.70
2019-06-07T11:12:21.432Z,7.37
2019-06-07T11:15:26.487Z,6.23
2019-06-07T11:18:37.374Z,6.67
2019-06-07T11:21:42.310Z,6.00
2019-06-07T11:24:46.891Z,6.00
2019-06-07T11:27:51.527Z,5.30
2019-06-07T11:30:56.060Z,4.83
2019-06-07T11:34:00.890Z,5.20
2019-06-07T11:37:07.306Z,4.40
2019-06-07T11:40:35.028Z,4.40
2019-06-07T11:43:19.079Z,4.30
2019-06-07T11:46:24.147Z,4.00
2019-06-07T11:49:30.521Z,3.90
2019-06-07T11:52:35.499Z,4.47
2019-06-07T11:55:41.080Z,3.90
2019-06-07T11:59:04.845Z,3.93
2019-06-07T12:02:09.524Z,4.23
2019-06-07T12:05:18.307Z,5.13
2019-06-07T12:08:20.998Z,5.23
2019-06-07T12:11:25.563Z,5.03
2019-06-07T12:14:30.145Z,4.30
2019-06-07T12:17:34.749Z,4.30
2019-06-07T12:20:39.368Z,4.87
2019-06-07T12:23:43.932Z,4.73
2019-06-07T12:26:48.805Z,5.03
2019-06-07T12:29:53.438Z,4.63
2019-06-07T12:32:58.009Z,5.37
2019-06-07T12:36:02.552Z,4.97
2019-06-07T12:39:08.261Z,4.80
2019-06-07T12:42:12.878Z,5.53
2019-06-07T12:45:41.229Z,6.70
2019-06-07T12:48:26.169Z,7.20
2019-06-07T12:51:33.823Z,5.90
2019-06-07T12:54:38.429Z,7.40
2019-06-07T12:57:43.064Z,6.93
2019-06-07T13:00:50.307Z,6.20
2019-06-07T13:03:54.941Z,5.87
2019-06-07T13:06:59.529Z,5.83
2019-06-07T13:10:04.263Z,6.37
2019-06-07T13:13:08.810Z,7.03
2019-06-07T13:16:13.541Z,6.10
2019-06-07T13:19:18.458Z,6.30
2019-06-07T13:22:24.286Z,7.10
2019-06-07T13:25:44.114Z,6.03
2019-06-07T13:28:36.236Z,7.30
2019-06-07T13:31:41.387Z,7.50
2019-06-07T13:34:46.841Z,6.60
2019-06-07T13:37:51.793Z,6.67
2019-06-07T13:40:57.811Z,6.63
2019-06-07T13:44:02.380Z,7.67
2019-06-07T13:47:06.975Z,8.07
2019-06-07T13:50:13.598Z,8.27
2019-06-07T13:53:18.950Z,7.10
2019-06-07T13:56:24.024Z,7.23
2019-06-07T13:59:29.094Z,6.60
2019-06-07T14:02:34.604Z,6.47
2019-06-07T14:05:39.247Z,8.03
2019-06-07T14:08:43.858Z,8.20
2019-06-07T14:11:50.833Z,7.70
2019-06-07T14:14:54.732Z,7.60
2019-06-07T14:17:59.274Z,8.13
2019-06-07T14:21:03.916Z,8.73
2019-06-07T14:24:08.520Z,7.87
2019-06-07T14:27:13.132Z,9.57
2019-06-07T14:30:18.257Z,9.40
2019-06-07T14:33:25.027Z,8.63
2019-06-07T14:36:29.084Z,8.30
2019-06-07T14:39:33.791Z,7.00
2019-06-07T14:42:38.383Z,6.47
2019-06-07T14:45:42.919Z,5.80
2019-06-07T14:48:47.586Z,7.07
2019-06-07T14:51:52.474Z,7.30
2019-06-07T14:54:57.160Z,6.67
2019-06-07T14:58:01.708Z,6.13
2019-06-07T15:01:06.350Z,6.90
2019-06-07T15:04:10.953Z,6.50
2019-06-07T15:07:15.553Z,6.40
2019-06-07T15:10:20.381Z,6.07
2019-06-07T15:13:25.067Z,6.00
2019-06-07T15:16:30.124Z,6.20
2019-06-07T15:19:36.284Z,6.00
2019-06-07T15:22:41.013Z,6.17
2019-06-07T15:25:45.875Z,6.60
2019-06-07T15:28:50.524Z,5.60
2019-06-07T15:31:55.089Z,5.97
2019-06-07T15:34:59.581Z,5.87
2019-06-07T15:38:23.331Z,5.60
2019-06-07T15:41:28.932Z,6.77
2019-06-07T15:44:37.576Z,6.90
2019-06-07T15:47:42.126Z,6.40
2019-06-07T15:50:47.885Z,6.53
2019-06-07T15:53:53.923Z,6.90
2019-06-07T15:56:58.470Z,6.13
2019-06-07T16:00:07.469Z,6.40
2019-06-07T16:03:12.094Z,5.67
2019-06-07T16:06:19.451Z,5.60
2019-06-07T16:09:22.959Z,5.50
2019-06-07T16:12:27.600Z,6.33
2019-06-07T16:15:33.025Z,6.37
2019-06-07T16:18:37.790Z,6.20
2019-06-07T16:21:44.030Z,5.40
2019-06-07T16:24:48.621Z,7.80
2019-06-07T16:27:53.178Z,7.07
2019-06-07T16:30:57.777Z,8.50
2019-06-07T16:34:02.402Z,8.33
2019-06-07T16:37:07.403Z,8.40
2019-06-07T16:40:13.884Z,7.97
2019-06-07T16:43:18.758Z,7.33
2019-06-07T16:46:23.796Z,7.53
2019-06-07T16:49:28.455Z,7.70
2019-06-07T16:52:34.396Z,8.00
2019-06-07T16:55:38.962Z,8.23
2019-06-07T16:58:44.369Z,8.30
2019-06-07T17:01:49.561Z,9.13
2019-06-07T17:04:54.178Z,8.93
2019-06-07T17:08:00.405Z,8.27
2019-06-07T17:11:05.060Z,6.87
2019-06-07T17:14:09.711Z,7.80
2019-06-07T17:17:14.358Z,7.50
2019-06-07T17:20:19.411Z,7.40
2019-06-07T17:23:23.986Z,8.13
2019-06-07T17:26:28.564Z,7.40
2019-06-07T17:29:33.124Z,8.37
2019-06-07T17:32:56.269Z,7.60
2019-06-07T17:35:51.074Z,7.40
2019-06-07T17:39:15.103Z,8.77
2019-06-07T17:42:19.641Z,7.63
2019-06-07T17:45:24.612Z,7.33
2019-06-07T17:48:29.195Z,7.20
2019-06-07T17:51:34.188Z,8.00
2019-06-07T17:54:39.239Z,8.10
2019-06-07T17:57:44.328Z,8.27
2019-06-07T18:00:53.076Z,7.80
2019-06-07T18:03:58.658Z,7.23
2019-06-07T18:07:03.357Z,7.50
2019-06-07T18:10:09.652Z,6.77
2019-06-07T18:13:14.703Z,6.10
2019-06-07T18:16:19.253Z,5.97
2019-06-07T18:19:24.269Z,6.77
2019-06-07T18:22:35.388Z,7.33
2019-06-07T18:25:40.588Z,7.10
2019-06-07T18:28:46.503Z,6.80
2019-06-07T18:31:52.789Z,6.60
2019-06-07T18:34:57.494Z,6.90
2019-06-07T18:38:02.979Z,6.77
2019-06-07T18:41:07.936Z,6.23
2019-06-07T18:44:21.198Z,6.40
2019-06-07T18:47:19.102Z,6.23
2019-06-07T18:50:24.767Z,7.60
2019-06-07T18:53:29.349Z,6.27
2019-06-07T18:56:35.078Z,7.73
2019-06-07T18:59:40.019Z,6.67
2019-06-07T19:02:44.651Z,7.00
2019-06-07T19:05:50.287Z,5.97
2019-06-07T19:08:56.701Z,6.43
2019-06-07T19:12:01.862Z,6.17
2019-06-07T19:15:07.902Z,6.70
2019-06-07T19:18:12.965Z,5.70
2019-06-07T19:21:18.347Z,6.20
2019-06-07T19:24:22.941Z,6.00
2019-06-07T19:27:27.535Z,6.17
2019-06-07T19:30:32.548Z,6.00
2019-06-07T19:33:48.651Z,6.00
2019-06-07T19:36:48.850Z,6.33
2019-06-07T19:39:51.723Z,5.87
2019-06-07T19:42:58.511Z,5.30
2019-06-07T19:46:03.192Z,5.60
2019-06-07T19:49:08.279Z,5.77
2019-06-07T19:52:13.568Z,4.90
2019-06-07T19:55:18.505Z,5.10
2019-06-07T19:58:23.109Z,5.33
2019-06-07T20:01:28.044Z,5.00
2019-06-07T20:04:33.377Z,4.90
2019-06-07T20:07:38.051Z,5.37
2019-06-07T20:10:42.617Z,5.20
2019-06-07T20:13:47.203Z,4.90
2019-06-07T20:16:51.789Z,5.20
2019-06-07T20:19:56.451Z,5.50
2019-06-07T20:23:03.045Z,5.53
2019-06-07T20:26:08.866Z,5.73
2019-06-07T20:29:25.465Z,4.87
2019-06-07T20:32:20.082Z,5.30
2019-06-07T20:35:24.786Z,5.60
2019-06-07T20:38:29.303Z,5.83
2019-06-07T20:41:33.994Z,6.07
2019-06-07T20:44:38.641Z,5.60
2019-06-07T20:47:43.204Z,5.33
2019-06-07T20:50:49.119Z,6.10
2019-06-07T20:53:54.782Z,5.90
2019-06-07T20:57:00.604Z,5.00
2019-06-07T21:00:14.579Z,4.90
2019-06-07T21:03:13.212Z,4.27
2019-06-07T21:06:17.842Z,4.30
2019-06-07T21:09:22.409Z,4.30
2019-06-07T21:12:26.896Z,5.33
2019-06-07T21:15:31.958Z,5.50
2019-06-07T21:18:37.447Z,5.20
2019-06-07T21:21:42.037Z,5.00
2019-06-07T21:24:46.723Z,4.93
2019-06-07T21:27:51.785Z,4.17
2019-06-07T21:30:56.669Z,5.17
2019-06-07T21:34:01.410Z,4.27
2019-06-07T21:37:06.101Z,4.17
2019-06-07T21:40:12.217Z,5.30
2019-06-07T21:43:18.657Z,4.50
2019-06-07T21:46:23.262Z,4.70
2019-06-07T21:49:28.159Z,5.23
2019-06-07T21:52:32.999Z,4.97
2019-06-07T21:55:38.606Z,4.93
2019-06-07T21:58:43.209Z,4.90
2019-06-07T22:01:47.750Z,4.30
2019-06-07T22:04:52.617Z,4.50
2019-06-07T22:07:57.242Z,4.50
2019-06-07T22:11:02.217Z,5.00
2019-06-07T22:14:08.247Z,4.43
2019-06-07T22:17:15.648Z,4.63
2019-06-07T22:20:20.627Z,4.60
2019-06-07T22:23:26.158Z,4.53
2019-06-07T22:26:30.768Z,4.47
2019-06-07T22:29:35.248Z,4.20
2019-06-07T22:32:40.079Z,4.40
2019-06-07T22:35:44.593Z,4.20
2019-06-07T22:38:49.220Z,4.07
2019-06-07T22:41:54.234Z,3.60
2019-06-07T22:44:58.793Z,3.20
2019-06-07T22:48:03.333Z,3.50
2019-06-07T22:51:11.319Z,3.93
2019-06-07T22:54:16.111Z,4.07
2019-06-07T22:57:24.419Z,4.00
2019-06-07T23:00:31.442Z,3.83
2019-06-07T23:03:35.937Z,3.70
2019-06-07T23:06:40.526Z,3.57
2019-06-07T23:09:45.500Z,3.33
2019-06-07T23:12:50.139Z,3.20
2019-06-07T23:15:54.680Z,3.63
2019-06-07T23:18:59.273Z,4.30
2019-06-07T23:22:03.862Z,4.17
2019-06-07T23:25:09.999Z,4.30
2019-06-07T23:28:14.610Z,4.67
2019-06-07T23:31:20.798Z,3.93
2019-06-07T23:34:25.952Z,4.27
2019-06-07T23:37:31.009Z,4.30
2019-06-07T23:40:35.678Z,4.47
2019-06-07T23:43:40.261Z,5.20
2019-06-07T23:46:44.856Z,5.67
2019-06-07T23:49:49.453Z,6.67
2019-06-07T23:52:54.272Z,5.50
2019-06-07T23:55:58.833Z,4.23
2019-06-07T23:59:03.686Z,3.37
